sensor_id;sensor_type;location;lat;lon;timestamp;pressure;altitude;pressure_sealevel;temperature;humidity
77662;BME280;67292;52.136;5.424;2023-02-26T00:00:10;102147.22;;;1.18;94.66
77662;BME280;67292;52.136;5.424;2023-02-26T00:02:41;102148.06;;;1.17;94.00
77662;BME280;67292;52.136;5.424;2023-02-26T00:05:08;102151.59;;;1.18;94.40
77662;BME280;67292;52.136;5.424;2023-02-26T00:07:35;102156.75;;;1.15;93.55
77662;BME280;67292;52.136;5.424;2023-02-26T00:10:02;102160.16;;;1.12;93.43
77662;BME280;67292;52.136;5.424;2023-02-26T00:12:29;102157.44;;;1.09;93.64
77662;BME280;67292;52.136;5.424;2023-02-26T00:14:56;102161.81;;;1.08;93.04
77662;BME280;67292;52.136;5.424;2023-02-26T00:17:36;102174.91;;;1.08;94.12
77662;BME280;67292;52.136;5.424;2023-02-26T00:20:07;102184.44;;;1.05;93.29
77662;BME280;67292;52.136;5.424;2023-02-26T00:22:35;102188.78;;;1.04;92.33
77662;BME280;67292;52.136;5.424;2023-02-26T00:25:02;102195.81;;;1.05;92.05
77662;BME280;67292;52.136;5.424;2023-02-26T00:27:29;102197.63;;;1.08;91.97
77662;BME280;67292;52.136;5.424;2023-02-26T00:29:55;102206.34;;;1.07;92.05
77662;BME280;67292;52.136;5.424;2023-02-26T00:32:22;102215.94;;;1.06;91.78
77662;BME280;67292;52.136;5.424;2023-02-26T00:34:49;102220.47;;;1.14;89.71
77662;BME280;67292;52.136;5.424;2023-02-26T00:42:31;102226.75;;;1.20;89.25
77662;BME280;67292;52.136;5.424;2023-02-26T00:44:58;102230.34;;;1.24;89.43
77662;BME280;67292;52.136;5.424;2023-02-26T00:47:49;102231.28;;;1.26;90.18
77662;BME280;67292;52.136;5.424;2023-02-26T00:50:23;102219.97;;;1.27;90.04
77662;BME280;67292;52.136;5.424;2023-02-26T00:52:59;102232.22;;;1.28;89.47
77662;BME280;67292;52.136;5.424;2023-02-26T00:55:27;102237.47;;;1.28;89.68
77662;BME280;67292;52.136;5.424;2023-02-26T00:57:55;102236.63;;;1.29;90.02
77662;BME280;67292;52.136;5.424;2023-02-26T01:00:21;102240.13;;;1.29;89.95
77662;BME280;67292;52.136;5.424;2023-02-26T01:02:48;102233.97;;;1.27;90.03
77662;BME280;67292;52.136;5.424;2023-02-26T01:05:16;102233.88;;;1.24;90.22
77662;BME280;67292;52.136;5.424;2023-02-26T01:07:51;102232.97;;;1.24;89.41
77662;BME280;67292;52.136;5.424;2023-02-26T01:10:20;102225.88;;;1.20;89.80
77662;BME280;67292;52.136;5.424;2023-02-26T01:12:47;102232.88;;;1.21;89.34
77662;BME280;67292;52.136;5.424;2023-02-26T01:15:13;102239.84;;;1.20;89.64
77662;BME280;67292;52.136;5.424;2023-02-26T01:20:17;102238.09;;;1.19;90.43
77662;BME280;67292;52.136;5.424;2023-02-26T01:25:45;102253.84;;;1.21;89.47
77662;BME280;67292;52.136;5.424;2023-02-26T01:28:09;102249.44;;;1.18;89.96
77662;BME280;67292;52.136;5.424;2023-02-26T01:30:36;102250.28;;;1.17;89.93
77662;BME280;67292;52.136;5.424;2023-02-26T01:33:13;102255.44;;;1.14;89.99
77662;BME280;67292;52.136;5.424;2023-02-26T01:47:38;102265.38;;;0.94;90.10
77662;BME280;67292;52.136;5.424;2023-02-26T01:49:39;102272.19;;;0.89;89.37
77662;BME280;67292;52.136;5.424;2023-02-26T01:53:01;102273.88;;;0.86;89.92
77662;BME280;67292;52.136;5.424;2023-02-26T01:55:21;102275.53;;;0.84;89.67
77662;BME280;67292;52.136;5.424;2023-02-26T01:57:51;102266.69;;;0.80;89.32
77662;BME280;67292;52.136;5.424;2023-02-26T02:00:19;102281.53;;;0.80;89.78
77662;BME280;67292;52.136;5.424;2023-02-26T02:02:47;102275.31;;;0.76;89.20
77662;BME280;67292;52.136;5.424;2023-02-26T02:08:09;102287.50;;;0.74;90.06
77662;BME280;67292;52.136;5.424;2023-02-26T02:10:41;102288.28;;;0.71;89.20
77662;BME280;67292;52.136;5.424;2023-02-26T02:13:28;102291.59;;;0.66;89.48
77662;BME280;67292;52.136;5.424;2023-02-26T02:16:19;102296.81;;;0.64;89.47
77662;BME280;67292;52.136;5.424;2023-02-26T02:19:13;102296.66;;;0.60;90.41
77662;BME280;67292;52.136;5.424;2023-02-26T02:27:51;102314.63;;;0.48;89.33
77662;BME280;67292;52.136;5.424;2023-02-26T02:30:28;102307.50;;;0.44;89.48
77662;BME280;67292;52.136;5.424;2023-02-26T02:33:12;102314.38;;;0.40;90.08
77662;BME280;67292;52.136;5.424;2023-02-26T02:35:49;102315.16;;;0.38;89.52
77662;BME280;67292;52.136;5.424;2023-02-26T02:41:09;102318.53;;;0.33;89.98
77662;BME280;67292;52.136;5.424;2023-02-26T02:43:39;102321.06;;;0.30;89.89
77662;BME280;67292;52.136;5.424;2023-02-26T02:46:14;102329.66;;;0.26;89.67
77662;BME280;67292;52.136;5.424;2023-02-26T02:49:02;102327.88;;;0.25;89.28
77662;BME280;67292;52.136;5.424;2023-02-26T02:51:35;102340.00;;;0.23;89.82
77662;BME280;67292;52.136;5.424;2023-02-26T02:54:12;102342.50;;;0.19;89.85
77662;BME280;67292;52.136;5.424;2023-02-26T02:56:44;102336.31;;;0.17;89.03
77662;BME280;67292;52.136;5.424;2023-02-26T02:59:33;102337.09;;;0.14;89.66
77662;BME280;67292;52.136;5.424;2023-02-26T03:04:56;102348.31;;;0.10;88.84
77662;BME280;67292;52.136;5.424;2023-02-26T03:07:23;102353.50;;;0.09;88.78
77662;BME280;67292;52.136;5.424;2023-02-26T03:09:50;102348.22;;;0.07;90.05
77662;BME280;67292;52.136;5.424;2023-02-26T03:12:17;102346.44;;;0.06;89.94
77662;BME280;67292;52.136;5.424;2023-02-26T03:14:43;102353.41;;;0.06;89.72
77662;BME280;67292;52.136;5.424;2023-02-26T03:17:23;102356.78;;;0.03;88.97
77662;BME280;67292;52.136;5.424;2023-02-26T03:22:46;102371.47;;;-0.02;89.79
77662;BME280;67292;52.136;5.424;2023-02-26T03:25:25;102360.94;;;-0.04;89.52
77662;BME280;67292;52.136;5.424;2023-02-26T03:30:49;102365.16;;;-0.07;89.24
77662;BME280;67292;52.136;5.424;2023-02-26T03:33:37;102372.00;;;-0.11;88.95
77662;BME280;67292;52.136;5.424;2023-02-26T03:38:48;102375.38;;;-0.15;89.87
77662;BME280;67292;52.136;5.424;2023-02-26T03:41:26;102383.16;;;-0.16;88.72
77662;BME280;67292;52.136;5.424;2023-02-26T03:44:00;102371.75;;;-0.18;89.45
77662;BME280;67292;52.136;5.424;2023-02-26T03:46:50;102379.53;;;-0.20;89.13
77662;BME280;67292;52.136;5.424;2023-02-26T03:49:25;102392.56;;;-0.21;89.06
77662;BME280;67292;52.136;5.424;2023-02-26T03:51:54;102396.88;;;-0.23;88.78
77662;BME280;67292;52.136;5.424;2023-02-26T03:54:29;102394.25;;;-0.23;89.15
77662;BME280;67292;52.136;5.424;2023-02-26T03:56:57;102398.59;;;-0.24;89.30
77662;BME280;67292;52.136;5.424;2023-02-26T03:59:24;102392.47;;;-0.24;88.87
77662;BME280;67292;52.136;5.424;2023-02-26T04:02:01;102403.72;;;-0.27;88.78
77662;BME280;67292;52.136;5.424;2023-02-26T04:04:45;102407.16;;;-0.28;90.09
77662;BME280;67292;52.136;5.424;2023-02-26T04:07:16;102413.22;;;-0.29;89.18
77662;BME280;67292;52.136;5.424;2023-02-26T04:09:46;102414.00;;;-0.31;89.53
77662;BME280;67292;52.136;5.424;2023-02-26T04:12:13;102411.34;;;-0.33;90.06
77662;BME280;67292;52.136;5.424;2023-02-26T04:14:40;102412.97;;;-0.37;89.69
77662;BME280;67292;52.136;5.424;2023-02-26T04:17:07;102424.19;;;-0.39;90.54
77662;BME280;67292;52.136;5.424;2023-02-26T04:19:33;102433.69;;;-0.41;89.06
77662;BME280;67292;52.136;5.424;2023-02-26T04:22:00;102429.28;;;-0.44;89.88
77662;BME280;67292;52.136;5.424;2023-02-26T04:24:26;102432.59;;;-0.48;89.95
77662;BME280;67292;52.136;5.424;2023-02-26T04:26:53;102436.88;;;-0.50;90.00
77662;BME280;67292;52.136;5.424;2023-02-26T04:29:19;102440.25;;;-0.52;90.40
77662;BME280;67292;52.136;5.424;2023-02-26T04:31:46;102436.72;;;-0.54;89.69
77662;BME280;67292;52.136;5.424;2023-02-26T04:34:13;102447.06;;;-0.57;90.13
77662;BME280;67292;52.136;5.424;2023-02-26T04:36:39;102452.16;;;-0.60;90.09
77662;BME280;67292;52.136;5.424;2023-02-26T04:39:06;102457.31;;;-0.62;90.83
77662;BME280;67292;52.136;5.424;2023-02-26T04:41:37;102458.16;;;-0.63;90.81
77662;BME280;67292;52.136;5.424;2023-02-26T04:44:05;102458.09;;;-0.64;90.13
77662;BME280;67292;52.136;5.424;2023-02-26T04:46:32;102457.94;;;-0.69;90.02
77662;BME280;67292;52.136;5.424;2023-02-26T04:48:58;102462.22;;;-0.71;90.08
77662;BME280;67292;52.136;5.424;2023-02-26T04:51:25;102464.75;;;-0.73;90.29
77662;BME280;67292;52.136;5.424;2023-02-26T04:53:52;102462.91;;;-0.75;91.02
77662;BME280;67292;52.136;5.424;2023-02-26T04:56:19;102471.59;;;-0.76;91.20
77662;BME280;67292;52.136;5.424;2023-02-26T04:58:45;102471.53;;;-0.78;91.13
77662;BME280;67292;52.136;5.424;2023-02-26T05:01:12;102474.91;;;-0.80;90.74
77662;BME280;67292;52.136;5.424;2023-02-26T05:03:39;102480.09;;;-0.82;90.22
77662;BME280;67292;52.136;5.424;2023-02-26T05:06:06;102477.41;;;-0.83;90.63
77662;BME280;67292;52.136;5.424;2023-02-26T05:08:33;102487.72;;;-0.86;90.91
77662;BME280;67292;52.136;5.424;2023-02-26T05:10:59;102498.19;;;-0.86;90.69
77662;BME280;67292;52.136;5.424;2023-02-26T05:13:26;102498.09;;;-0.89;90.87
77662;BME280;67292;52.136;5.424;2023-02-26T05:15:53;102500.63;;;-0.91;91.47
77662;BME280;67292;52.136;5.424;2023-02-26T05:18:20;102506.69;;;-0.92;91.55
77662;BME280;67292;52.136;5.424;2023-02-26T05:20:51;102506.63;;;-0.93;90.86
77662;BME280;67292;52.136;5.424;2023-02-26T05:23:18;102510.94;;;-0.94;91.17
77662;BME280;67292;52.136;5.424;2023-02-26T05:25:45;102509.97;;;-0.97;91.31
77662;BME280;67292;52.136;5.424;2023-02-26T05:28:12;102515.19;;;-0.97;91.44
77662;BME280;67292;52.136;5.424;2023-02-26T05:30:39;102513.25;;;-1.01;91.02
77662;BME280;67292;52.136;5.424;2023-02-26T05:33:06;102521.09;;;-1.01;91.22
77662;BME280;67292;52.136;5.424;2023-02-26T05:35:33;102510.44;;;-1.06;90.66
77662;BME280;67292;52.136;5.424;2023-02-26T05:37:59;102528.81;;;-1.04;91.92
77662;BME280;67292;52.136;5.424;2023-02-26T05:40:26;102530.44;;;-1.06;91.04
77662;BME280;67292;52.136;5.424;2023-02-26T05:42:53;102542.63;;;-1.07;90.75
77662;BME280;67292;52.136;5.424;2023-02-26T05:45:19;102539.97;;;-1.08;91.06
77662;BME280;67292;52.136;5.424;2023-02-26T05:47:46;102544.22;;;-1.11;90.66
77662;BME280;67292;52.136;5.424;2023-02-26T05:50:13;102548.50;;;-1.13;91.25
77662;BME280;67292;52.136;5.424;2023-02-26T05:52:39;102540.59;;;-1.14;90.62
77662;BME280;67292;52.136;5.424;2023-02-26T05:55:08;102558.88;;;-1.14;91.49
77662;BME280;67292;52.136;5.424;2023-02-26T05:57:35;102562.31;;;-1.15;91.76
77662;BME280;67292;52.136;5.424;2023-02-26T06:00:03;102566.50;;;-1.19;91.09
77662;BME280;67292;52.136;5.424;2023-02-26T06:02:30;102572.59;;;-1.20;91.30
77662;BME280;67292;52.136;5.424;2023-02-26T06:04:57;102574.16;;;-1.23;90.88
77662;BME280;67292;52.136;5.424;2023-02-26T06:07:23;102571.47;;;-1.25;91.05
77662;BME280;67292;52.136;5.424;2023-02-26T06:09:50;102585.38;;;-1.26;91.88
77662;BME280;67292;52.136;5.424;2023-02-26T06:12:16;102578.34;;;-1.27;91.25
77662;BME280;67292;52.136;5.424;2023-02-26T06:14:43;102580.91;;;-1.28;91.19
77662;BME280;67292;52.136;5.424;2023-02-26T06:17:10;102588.63;;;-1.31;91.02
77662;BME280;67292;52.136;5.424;2023-02-26T06:19:36;102589.50;;;-1.31;91.38
77662;BME280;67292;52.136;5.424;2023-02-26T06:22:03;102587.66;;;-1.33;90.93
77662;BME280;67292;52.136;5.424;2023-02-26T06:24:29;102605.03;;;-1.34;91.39
77662;BME280;67292;52.136;5.424;2023-02-26T06:26:56;102603.09;;;-1.38;91.19
77662;BME280;67292;52.136;5.424;2023-02-26T06:29:22;102601.31;;;-1.39;90.93
77662;BME280;67292;52.136;5.424;2023-02-26T06:31:49;102603.03;;;-1.39;91.19
77662;BME280;67292;52.136;5.424;2023-02-26T06:34:16;102604.72;;;-1.41;90.75
77662;BME280;67292;52.136;5.424;2023-02-26T06:36:43;102602.94;;;-1.42;91.11
77662;BME280;67292;52.136;5.424;2023-02-26T06:39:10;102609.03;;;-1.42;90.63
77662;BME280;67292;52.136;5.424;2023-02-26T06:41:37;102609.03;;;-1.42;90.12
77662;BME280;67292;52.136;5.424;2023-02-26T06:44:04;102619.47;;;-1.42;90.57
77662;BME280;67292;52.136;5.424;2023-02-26T06:46:31;102629.09;;;-1.41;91.13
77662;BME280;67292;52.136;5.424;2023-02-26T06:48:57;102623.88;;;-1.41;90.57
77662;BME280;67292;52.136;5.424;2023-02-26T06:51:24;102626.50;;;-1.41;90.38
77662;BME280;67292;52.136;5.424;2023-02-26T06:53:51;102634.34;;;-1.39;90.86
77662;BME280;67292;52.136;5.424;2023-02-26T06:56:17;102633.69;;;-1.35;90.06
77662;BME280;67292;52.136;5.424;2023-02-26T06:58:44;102645.97;;;-1.33;90.63
77662;BME280;67292;52.136;5.424;2023-02-26T07:01:10;102644.34;;;-1.31;89.71
77662;BME280;67292;52.136;5.424;2023-02-26T07:03:37;102647.88;;;-1.29;90.16
77662;BME280;67292;52.136;5.424;2023-02-26T07:06:05;102649.81;;;-1.25;89.87
77662;BME280;67292;52.136;5.424;2023-02-26T07:08:52;102657.78;;;-1.22;90.34
77662;BME280;67292;52.136;5.424;2023-02-26T07:11:19;102661.41;;;-1.18;89.71
77662;BME280;67292;52.136;5.424;2023-02-26T07:13:45;102665.03;;;-1.15;89.78
77662;BME280;67292;52.136;5.424;2023-02-26T07:16:12;102671.28;;;-1.11;89.74
77662;BME280;67292;52.136;5.424;2023-02-26T07:18:39;102681.03;;;-1.07;90.11
77662;BME280;67292;52.136;5.424;2023-02-26T07:21:05;102682.06;;;-1.03;89.80
77662;BME280;67292;52.136;5.424;2023-02-26T07:23:32;102677.88;;;-1.00;90.28
77662;BME280;67292;52.136;5.424;2023-02-26T07:25:59;102682.44;;;-0.94;89.96
77662;BME280;67292;52.136;5.424;2023-02-26T07:28:26;102695.84;;;-0.87;89.91
77662;BME280;67292;52.136;5.424;2023-02-26T07:30:54;102692.91;;;-0.74;89.97
77662;BME280;67292;52.136;5.424;2023-02-26T07:33:21;102692.97;;;-0.51;90.52
77662;BME280;67292;52.136;5.424;2023-02-26T07:35:47;102688.94;;;-0.22;90.96
77662;BME280;67292;52.136;5.424;2023-02-26T07:38:14;102691.56;;;0.00;89.04
77662;BME280;67292;52.136;5.424;2023-02-26T07:40:42;102692.19;;;0.17;88.45
77662;BME280;67292;52.136;5.424;2023-02-26T07:43:09;102702.09;;;0.25;88.39
77662;BME280;67292;52.136;5.424;2023-02-26T07:45:36;102689.84;;;0.24;87.85
77662;BME280;67292;52.136;5.424;2023-02-26T07:48:02;102697.84;;;0.27;87.59
77662;BME280;67292;52.136;5.424;2023-02-26T07:50:29;102699.63;;;0.28;87.52
77662;BME280;67292;52.136;5.424;2023-02-26T07:52:56;102701.41;;;0.29;87.57
77662;BME280;67292;52.136;5.424;2023-02-26T07:55:22;102704.19;;;0.34;87.47
77662;BME280;67292;52.136;5.424;2023-02-26T07:57:49;102709.53;;;0.37;87.04
77662;BME280;67292;52.136;5.424;2023-02-26T08:00:16;102715.72;;;0.39;87.50
77662;BME280;67292;52.136;5.424;2023-02-26T08:02:45;102705.25;;;0.39;87.38
77662;BME280;67292;52.136;5.424;2023-02-26T08:05:13;102715.03;;;0.43;88.03
77662;BME280;67292;52.136;5.424;2023-02-26T08:07:39;102717.63;;;0.43;87.38
77662;BME280;67292;52.136;5.424;2023-02-26T08:10:08;102717.78;;;0.48;87.28
77662;BME280;67292;52.136;5.424;2023-02-26T08:12:34;102730.06;;;0.49;87.04
77662;BME280;67292;52.136;5.424;2023-02-26T08:15:03;102732.84;;;0.53;87.09
77662;BME280;67292;52.136;5.424;2023-02-26T08:17:29;102741.63;;;0.55;86.64
77662;BME280;67292;52.136;5.424;2023-02-26T08:19:56;102743.53;;;0.59;87.63
77662;BME280;67292;52.136;5.424;2023-02-26T08:22:22;102748.06;;;0.63;87.35
77662;BME280;67292;52.136;5.424;2023-02-26T08:24:49;102750.78;;;0.66;86.63
77662;BME280;67292;52.136;5.424;2023-02-26T08:27:16;102757.88;;;0.69;87.04
77662;BME280;67292;52.136;5.424;2023-02-26T08:29:43;102759.84;;;0.75;86.46
77662;BME280;67292;52.136;5.424;2023-02-26T08:32:12;102763.44;;;0.78;85.82
77662;BME280;67292;52.136;5.424;2023-02-26T08:34:41;102760.19;;;0.84;85.73
77662;BME280;67292;52.136;5.424;2023-02-26T08:37:07;102767.28;;;0.88;85.06
77662;BME280;67292;52.136;5.424;2023-02-26T08:39:37;102772.66;;;0.91;86.10
77662;BME280;67292;52.136;5.424;2023-02-26T08:42:06;102769.31;;;0.95;86.42
77662;BME280;67292;52.136;5.424;2023-02-26T08:44:33;102777.38;;;1.01;83.98
77662;BME280;67292;52.136;5.424;2023-02-26T08:47:00;102769.72;;;1.05;83.42
77662;BME280;67292;52.136;5.424;2023-02-26T08:49:27;102780.28;;;1.08;83.32
77662;BME280;67292;52.136;5.424;2023-02-26T08:51:53;102781.34;;;1.14;83.48
77662;BME280;67292;52.136;5.424;2023-02-26T08:54:20;102780.66;;;1.19;81.33
77662;BME280;67292;52.136;5.424;2023-02-26T08:56:46;102784.28;;;1.23;82.20
77662;BME280;67292;52.136;5.424;2023-02-26T08:59:13;102801.19;;;1.31;80.28
77662;BME280;67292;52.136;5.424;2023-02-26T09:01:40;102794.38;;;1.36;82.62
77662;BME280;67292;52.136;5.424;2023-02-26T09:04:07;102799.34;;;1.54;81.90
77662;BME280;67292;52.136;5.424;2023-02-26T09:06:33;102795.13;;;1.84;83.08
77662;BME280;67292;52.136;5.424;2023-02-26T09:09:00;102802.97;;;2.36;80.83
77662;BME280;67292;52.136;5.424;2023-02-26T09:11:26;102796.81;;;2.94;80.49
77662;BME280;67292;52.136;5.424;2023-02-26T09:13:55;102799.28;;;3.51;78.53
77662;BME280;67292;52.136;5.424;2023-02-26T09:16:24;102791.78;;;4.00;75.96
77662;BME280;67292;52.136;5.424;2023-02-26T09:18:51;102799.19;;;4.53;79.20
77662;BME280;67292;52.136;5.424;2023-02-26T09:21:19;102806.41;;;5.03;77.82
77662;BME280;67292;52.136;5.424;2023-02-26T09:23:46;102800.16;;;5.43;74.39
77662;BME280;67292;52.136;5.424;2023-02-26T09:26:13;102794.34;;;5.61;71.02
77662;BME280;67292;52.136;5.424;2023-02-26T09:28:40;102789.69;;;5.95;68.65
77662;BME280;67292;52.136;5.424;2023-02-26T09:31:07;102786.53;;;6.20;73.16
77662;BME280;67292;52.136;5.424;2023-02-26T09:33:34;102797.66;;;6.56;73.17
77662;BME280;67292;52.136;5.424;2023-02-26T09:36:02;102800.66;;;6.82;70.19
77662;BME280;67292;52.136;5.424;2023-02-26T09:38:28;102795.69;;;7.08;72.40
77662;BME280;67292;52.136;5.424;2023-02-26T09:49:21;102808.00;;;7.86;69.73
77662;BME280;67292;52.136;5.424;2023-02-26T09:51:59;102799.34;;;8.09;70.62
77662;BME280;67292;52.136;5.424;2023-02-26T09:54:32;102807.38;;;8.19;66.55
77662;BME280;67292;52.136;5.424;2023-02-26T09:57:05;102802.97;;;8.20;64.99
77662;BME280;67292;52.136;5.424;2023-02-26T09:59:36;102810.16;;;8.31;64.89
77662;BME280;67292;52.136;5.424;2023-02-26T10:02:15;102802.34;;;8.53;68.31
77662;BME280;67292;52.136;5.424;2023-02-26T10:10:05;102812.16;;;8.69;65.51
77662;BME280;67292;52.136;5.424;2023-02-26T10:12:39;102815.75;;;8.82;65.20
77662;BME280;67292;52.136;5.424;2023-02-26T10:15:39;102819.28;;;8.74;65.46
77662;BME280;67292;52.136;5.424;2023-02-26T10:18:23;102821.91;;;8.77;64.86
77662;BME280;67292;52.136;5.424;2023-02-26T10:21:00;102829.03;;;8.80;62.56
77662;BME280;67292;52.136;5.424;2023-02-26T10:23:44;102820.19;;;8.81;59.38
77662;BME280;67292;52.136;5.424;2023-02-26T10:26:29;102824.53;;;8.67;59.10
77662;BME280;67292;52.136;5.424;2023-02-26T10:34:39;102831.59;;;8.62;63.54
77662;BME280;67292;52.136;5.424;2023-02-26T10:37:18;102836.84;;;8.59;56.17
77662;BME280;67292;52.136;5.424;2023-02-26T10:39:53;102843.75;;;8.32;58.46
77662;BME280;67292;52.136;5.424;2023-02-26T10:42:25;102848.94;;;8.23;57.92
77662;BME280;67292;52.136;5.424;2023-02-26T10:50:45;102836.63;;;8.28;59.17
77662;BME280;67292;52.136;5.424;2023-02-26T10:53:13;102855.16;;;8.27;59.13
77662;BME280;67292;52.136;5.424;2023-02-26T10:58:24;102849.06;;;8.35;58.94
77662;BME280;67292;52.136;5.424;2023-02-26T11:00:53;102852.78;;;8.59;62.27
77662;BME280;67292;52.136;5.424;2023-02-26T11:03:40;102852.78;;;8.59;61.16
77662;BME280;67292;52.136;5.424;2023-02-26T11:06:16;102856.41;;;8.71;61.82
77662;BME280;67292;52.136;5.424;2023-02-26T11:08:51;102852.09;;;8.93;60.63
77662;BME280;67292;52.136;5.424;2023-02-26T11:14:08;102849.44;;;8.92;57.24
77662;BME280;67292;52.136;5.424;2023-02-26T11:16:42;102847.63;;;8.82;55.25
77662;BME280;67292;52.136;5.424;2023-02-26T11:19:13;102849.47;;;8.95;59.50
77662;BME280;67292;52.136;5.424;2023-02-26T11:21:43;102862.75;;;8.95;56.42
77662;BME280;67292;52.136;5.424;2023-02-26T11:24:17;102857.44;;;9.01;55.02
77662;BME280;67292;52.136;5.424;2023-02-26T11:26:48;102862.81;;;9.13;55.90
77662;BME280;67292;52.136;5.424;2023-02-26T11:29:20;102869.06;;;9.23;52.74
77662;BME280;67292;52.136;5.424;2023-02-26T11:31:51;102859.31;;;9.23;57.06
77662;BME280;67292;52.136;5.424;2023-02-26T11:34:23;102856.72;;;9.37;61.09
77662;BME280;67292;52.136;5.424;2023-02-26T11:36:54;102864.69;;;9.37;60.41
77662;BME280;67292;52.136;5.424;2023-02-26T11:39:29;102856.69;;;9.26;60.56
77662;BME280;67292;52.136;5.424;2023-02-26T11:42:00;102858.41;;;9.13;60.47
77662;BME280;67292;52.136;5.424;2023-02-26T11:44:37;102861.69;;;8.70;57.34
77662;BME280;67292;52.136;5.424;2023-02-26T11:47:13;102874.69;;;8.33;56.54
77662;BME280;67292;52.136;5.424;2023-02-26T11:49:49;102879.84;;;8.18;60.06
77662;BME280;67292;52.136;5.424;2023-02-26T11:55:03;102877.03;;;7.98;54.11
77662;BME280;67292;52.136;5.424;2023-02-26T11:57:32;102874.09;;;7.73;54.68
77662;BME280;67292;52.136;5.424;2023-02-26T12:00:00;102874.91;;;7.68;58.65
77662;BME280;67292;52.136;5.424;2023-02-26T12:02:41;102869.50;;;7.55;57.59
77662;BME280;67292;52.136;5.424;2023-02-26T12:05:15;102870.34;;;7.52;58.25
77662;BME280;67292;52.136;5.424;2023-02-26T12:07:43;102869.38;;;7.44;58.14
77662;BME280;67292;52.136;5.424;2023-02-26T12:10:31;102856.09;;;7.41;58.59
77662;BME280;67292;52.136;5.424;2023-02-26T12:13:16;102856.13;;;7.43;60.25
77662;BME280;67292;52.136;5.424;2023-02-26T12:16:02;102863.06;;;7.33;60.54
77662;BME280;67292;52.136;5.424;2023-02-26T12:30:28;102855.88;;;7.23;59.94
77662;BME280;67292;52.136;5.424;2023-02-26T12:33:09;102846.94;;;7.16;59.30
77662;BME280;67292;52.136;5.424;2023-02-26T12:41:33;102852.00;;;6.96;60.91
77662;BME280;67292;52.136;5.424;2023-02-26T12:44:37;102856.38;;;6.94;62.15
77662;BME280;67292;52.136;5.424;2023-02-26T12:58:51;102855.44;;;6.89;60.15
77662;BME280;67292;52.136;5.424;2023-02-26T13:04:44;102854.47;;;6.84;60.86
77662;BME280;67292;52.136;5.424;2023-02-26T13:21:42;102852.75;;;6.86;58.93
77662;BME280;67292;52.136;5.424;2023-02-26T13:24:12;102850.91;;;6.82;61.00
77662;BME280;67292;52.136;5.424;2023-02-26T13:26:42;102858.84;;;6.79;61.89
77662;BME280;67292;52.136;5.424;2023-02-26T13:29:26;102844.59;;;6.70;59.08
77662;BME280;67292;52.136;5.424;2023-02-26T13:32:07;102840.97;;;6.65;57.60
77662;BME280;67292;52.136;5.424;2023-02-26T13:34:49;102843.66;;;6.66;62.03
77662;BME280;67292;52.136;5.424;2023-02-26T13:37:25;102845.41;;;6.66;57.23
77662;BME280;67292;52.136;5.424;2023-02-26T13:40:34;102850.63;;;6.63;60.05
77662;BME280;67292;52.136;5.424;2023-02-26T13:46:04;102846.19;;;6.58;60.09
77662;BME280;67292;52.136;5.424;2023-02-26T13:51:29;102852.41;;;6.64;60.21
77662;BME280;67292;52.136;5.424;2023-02-26T13:59:04;102850.50;;;6.53;60.19
77662;BME280;67292;52.136;5.424;2023-02-26T14:07:11;102841.78;;;6.59;62.31
77662;BME280;67292;52.136;5.424;2023-02-26T14:12:29;102834.75;;;6.63;64.53
77662;BME280;67292;52.136;5.424;2023-02-26T14:22:48;102848.84;;;6.58;63.64
77662;BME280;67292;52.136;5.424;2023-02-26T14:25:36;102854.13;;;6.58;60.56
77662;BME280;67292;52.136;5.424;2023-02-26T14:28:33;102848.69;;;6.51;59.10
77662;BME280;67292;52.136;5.424;2023-02-26T14:31:21;102855.75;;;6.49;61.14
77662;BME280;67292;52.136;5.424;2023-02-26T14:34:13;102852.19;;;6.50;60.93
77662;BME280;67292;52.136;5.424;2023-02-26T14:36:47;102852.22;;;6.48;60.85
77662;BME280;67292;52.136;5.424;2023-02-26T14:39:38;102849.59;;;6.51;60.84
77662;BME280;67292;52.136;5.424;2023-02-26T14:42:12;102850.47;;;6.52;63.72
77662;BME280;67292;52.136;5.424;2023-02-26T14:44:48;102856.75;;;6.58;62.48
77662;BME280;67292;52.136;5.424;2023-02-26T14:47:17;102852.34;;;6.60;63.04
77662;BME280;67292;52.136;5.424;2023-02-26T14:49:45;102846.22;;;6.62;59.77
77662;BME280;67292;52.136;5.424;2023-02-26T15:00:14;102848.84;;;6.58;61.22
77662;BME280;67292;52.136;5.424;2023-02-26T15:13:54;102858.34;;;6.46;62.86
77662;BME280;67292;52.136;5.424;2023-02-26T15:22:32;102860.81;;;6.38;63.03
77662;BME280;67292;52.136;5.424;2023-02-26T15:25:00;102859.09;;;6.37;62.04
77662;BME280;67292;52.136;5.424;2023-02-26T15:27:31;102855.50;;;6.35;63.13
77662;BME280;67292;52.136;5.424;2023-02-26T15:29:59;102857.25;;;6.33;60.00
77662;BME280;67292;52.136;5.424;2023-02-26T15:32:30;102861.56;;;6.30;60.96
77662;BME280;67292;52.136;5.424;2023-02-26T15:34:59;102876.50;;;6.28;62.90
77662;BME280;67292;52.136;5.424;2023-02-26T15:37:28;102873.03;;;6.30;63.17
77662;BME280;67292;52.136;5.424;2023-02-26T15:40:00;102864.19;;;6.28;63.28
77662;BME280;67292;52.136;5.424;2023-02-26T15:42:37;102866.78;;;6.23;63.49
77662;BME280;67292;52.136;5.424;2023-02-26T15:45:13;102876.47;;;6.23;64.42
77662;BME280;67292;52.136;5.424;2023-02-26T15:47:41;102874.66;;;6.20;62.46
77662;BME280;67292;52.136;5.424;2023-02-26T15:50:14;102873.66;;;6.14;61.12
77662;BME280;67292;52.136;5.424;2023-02-26T15:52:42;102870.06;;;6.10;63.95
77662;BME280;67292;52.136;5.424;2023-02-26T15:55:15;102872.66;;;6.07;61.29
77662;BME280;67292;52.136;5.424;2023-02-26T15:57:43;102871.75;;;6.05;61.26
77662;BME280;67292;52.136;5.424;2023-02-26T16:00:20;102873.41;;;6.00;64.23
77662;BME280;67292;52.136;5.424;2023-02-26T16:02:55;102880.41;;;5.98;63.90
77662;BME280;67292;52.136;5.424;2023-02-26T16:05:31;102876.81;;;5.93;61.96
77662;BME280;67292;52.136;5.424;2023-02-26T16:07:58;102877.69;;;5.92;63.08
77662;BME280;67292;52.136;5.424;2023-02-26T16:10:35;102882.06;;;5.92;64.72
77662;BME280;67292;52.136;5.424;2023-02-26T16:13:06;102881.13;;;5.88;63.05
77662;BME280;67292;52.136;5.424;2023-02-26T16:15:38;102876.63;;;5.85;65.28